createdAt,value
2018-10-12T00:02:11.481Z,20.80
2018-10-12T00:04:39.681Z,20.80
2018-10-12T00:07:07.955Z,20.70
2018-10-12T00:09:36.239Z,20.70
2018-10-12T00:12:04.453Z,20.70
2018-10-12T00:14:32.654Z,20.70
2018-10-12T00:17:00.890Z,20.80
2018-10-12T00:19:29.173Z,20.80
2018-10-12T00:21:57.397Z,20.80
2018-10-12T00:24:25.594Z,20.80
2018-10-12T00:26:53.849Z,20.60
2018-10-12T00:29:22.153Z,20.40
2018-10-12T00:31:50.346Z,20.30
2018-10-12T00:34:18.532Z,20.30
2018-10-12T00:36:46.770Z,20.30
2018-10-12T00:39:15.204Z,20.30
2018-10-12T00:41:43.529Z,20.40
2018-10-12T00:44:11.731Z,20.60
2018-10-12T00:46:39.936Z,20.30
2018-10-12T00:49:08.969Z,20.30
2018-10-12T00:51:37.437Z,20.20
2018-10-12T00:54:05.645Z,20.10
2018-10-12T00:56:33.890Z,20.00
2018-10-12T00:59:02.354Z,20.00
2018-10-12T01:01:30.566Z,20.00
2018-10-12T01:03:58.784Z,19.90
2018-10-12T01:06:27.011Z,19.90
2018-10-12T01:08:55.174Z,19.80
2018-10-12T01:11:23.381Z,19.90
2018-10-12T01:13:51.617Z,20.00
2018-10-12T01:16:19.892Z,20.10
2018-10-12T01:18:48.198Z,20.10
2018-10-12T01:21:16.389Z,20.20
2018-10-12T01:23:44.671Z,20.10
2018-10-12T01:26:12.880Z,20.30
2018-10-12T01:28:41.072Z,20.30
2018-10-12T01:31:09.274Z,20.30
2018-10-12T01:33:37.553Z,20.30
2018-10-12T01:36:05.907Z,20.30
2018-10-12T01:38:34.096Z,20.50
2018-10-12T01:41:02.349Z,20.50
2018-10-12T01:43:30.550Z,20.50
2018-10-12T01:45:58.995Z,20.60
2018-10-12T01:48:27.205Z,20.60
2018-10-12T01:50:55.428Z,20.60
2018-10-12T01:53:23.661Z,20.60
2018-10-12T01:55:56.309Z,20.50
2018-10-12T01:58:24.560Z,20.50
2018-10-12T02:00:52.905Z,20.40
2018-10-12T02:03:21.255Z,20.40
2018-10-12T02:05:49.456Z,20.30
2018-10-12T02:08:17.655Z,20.30
2018-10-12T02:10:45.886Z,20.10
2018-10-12T02:13:14.393Z,20.10
2018-10-12T02:15:42.819Z,20.20
2018-10-12T02:18:11.001Z,20.20
2018-10-12T02:20:39.206Z,20.20
2018-10-12T02:23:07.433Z,20.20
2018-10-12T02:25:35.995Z,20.30
2018-10-12T02:28:04.180Z,20.30
2018-10-12T02:30:32.343Z,20.30
2018-10-12T02:33:00.681Z,20.30
2018-10-12T02:35:28.997Z,20.20
2018-10-12T02:37:57.183Z,20.10
2018-10-12T02:40:25.369Z,20.10
2018-10-12T02:42:53.565Z,20.20
2018-10-12T02:45:21.860Z,19.70
2018-10-12T02:47:50.053Z,19.40
2018-10-12T02:50:18.251Z,19.50
2018-10-12T02:52:46.552Z,19.40
2018-10-12T02:55:14.889Z,19.50
2018-10-12T02:57:43.115Z,19.60
2018-10-12T03:00:11.325Z,19.60
2018-10-12T03:02:39.528Z,19.60
2018-10-12T03:05:07.898Z,19.20
2018-10-12T03:07:36.355Z,19.10
2018-10-12T03:10:04.871Z,19.00
2018-10-12T03:12:33.146Z,18.90
2018-10-12T03:15:01.373Z,18.80
2018-10-12T03:17:29.721Z,18.80
2018-10-12T03:19:58.682Z,18.80
2018-10-12T03:22:26.873Z,18.80
2018-10-12T03:24:55.078Z,18.80
2018-10-12T03:27:23.269Z,18.80
2018-10-12T03:29:52.084Z,18.80
2018-10-12T03:32:20.488Z,18.70
2018-10-12T03:34:48.688Z,18.70
2018-10-12T03:37:16.933Z,18.70
2018-10-12T03:39:45.314Z,18.70
2018-10-12T03:42:13.548Z,18.60
2018-10-12T03:44:41.754Z,18.60
2018-10-12T03:47:10.420Z,18.60
2018-10-12T03:49:38.630Z,18.50
2018-10-12T03:52:09.054Z,18.50
2018-10-12T03:54:37.384Z,18.50
2018-10-12T03:57:06.137Z,18.50
2018-10-12T03:59:34.338Z,18.40
2018-10-12T04:02:02.541Z,18.40
2018-10-12T04:04:30.764Z,18.40
2018-10-12T04:06:59.614Z,18.30
2018-10-12T04:09:27.813Z,18.30
2018-10-12T04:11:56.038Z,18.20
2018-10-12T04:14:24.302Z,18.10
2018-10-12T04:16:52.627Z,18.10
2018-10-12T04:19:20.955Z,18.10
2018-10-12T04:21:49.240Z,18.00
2018-10-12T04:24:17.493Z,18.10
2018-10-12T04:26:45.680Z,18.00
2018-10-12T04:29:14.119Z,18.10
2018-10-12T04:31:42.431Z,18.10
2018-10-12T04:34:10.658Z,18.00
2018-10-12T04:36:39.588Z,18.00
2018-10-12T04:39:19.099Z,17.80
2018-10-12T04:41:47.321Z,17.80
2018-10-12T04:44:15.525Z,17.80
2018-10-12T04:46:44.377Z,17.80
2018-10-12T04:49:16.886Z,17.70
2018-10-12T04:51:59.706Z,17.60
2018-10-12T04:54:28.497Z,17.60
2018-10-12T04:56:56.706Z,17.60
2018-10-12T04:59:24.991Z,17.60
2018-10-12T05:01:53.196Z,17.60
2018-10-12T05:04:21.793Z,17.60
2018-10-12T05:06:50.018Z,17.60
2018-10-12T05:09:18.197Z,17.60
2018-10-12T05:11:46.436Z,17.60
2018-10-12T05:14:14.961Z,17.60
2018-10-12T05:16:43.170Z,17.50
2018-10-12T05:19:11.372Z,17.40
2018-10-12T05:21:39.617Z,17.50
2018-10-12T05:24:08.014Z,17.40
2018-10-12T05:26:36.810Z,17.40
2018-10-12T05:29:05.123Z,17.40
2018-10-12T05:31:33.438Z,17.40
2018-10-12T05:34:02.561Z,17.40
2018-10-12T05:36:51.448Z,17.30
2018-10-12T05:39:49.409Z,17.40
2018-10-12T05:42:18.737Z,17.30
2018-10-12T05:44:46.953Z,17.20
2018-10-12T05:47:15.175Z,17.20
2018-10-12T05:49:54.705Z,17.30
2018-10-12T05:52:22.969Z,17.30
2018-10-12T05:54:51.206Z,17.20
2018-10-12T05:57:19.395Z,17.30
2018-10-12T05:59:47.550Z,17.30
2018-10-12T06:02:15.814Z,17.40
2018-10-12T06:04:44.123Z,17.40
2018-10-12T06:07:12.326Z,17.40
2018-10-12T06:09:40.622Z,17.50
2018-10-12T06:12:08.738Z,17.70
2018-10-12T06:14:37.104Z,17.90
2018-10-12T06:17:05.681Z,18.10
2018-10-12T06:19:33.889Z,18.20
2018-10-12T06:22:02.082Z,18.30
2018-10-12T06:24:30.511Z,18.40
2018-10-12T06:26:58.785Z,18.60
2018-10-12T06:29:26.948Z,18.60
2018-10-12T06:31:55.131Z,18.50
2018-10-12T06:34:23.342Z,18.60
2018-10-12T06:36:51.592Z,18.60
2018-10-12T06:39:19.769Z,18.90
2018-10-12T06:41:48.210Z,19.40
2018-10-12T06:44:16.189Z,20.00
2018-10-12T06:46:44.674Z,20.60
2018-10-12T06:49:13.331Z,21.20
2018-10-12T06:51:41.512Z,21.90
2018-10-12T06:54:09.861Z,22.70
2018-10-12T06:56:38.059Z,23.40
2018-10-12T06:59:07.051Z,24.20
2018-10-12T07:01:35.233Z,24.80
2018-10-12T07:04:03.488Z,25.20
2018-10-12T07:06:31.668Z,25.50
2018-10-12T07:08:59.958Z,25.80
2018-10-12T07:11:29.213Z,26.60
2018-10-12T07:13:57.399Z,27.50
2018-10-12T07:16:25.573Z,28.50
2018-10-12T07:18:53.741Z,29.50
2018-10-12T07:21:22.116Z,30.50
2018-10-12T07:23:50.669Z,31.40
2018-10-12T07:26:18.875Z,32.10
2018-10-12T07:28:47.113Z,32.90
2018-10-12T07:31:15.550Z,33.80
2018-10-12T07:33:43.798Z,34.70
2018-10-12T07:36:12.003Z,35.50
2018-10-12T07:38:40.225Z,36.20
2018-10-12T07:41:08.437Z,36.90
2018-10-12T07:43:37.607Z,37.40
2018-10-12T07:46:06.618Z,38.00
2018-10-12T07:48:34.820Z,38.20
2018-10-12T07:51:03.029Z,38.30
2018-10-12T07:53:31.282Z,38.50
2018-10-12T07:55:59.580Z,38.60
2018-10-12T07:58:28.017Z,38.70
2018-10-12T08:00:56.237Z,39.10
2018-10-12T08:03:24.481Z,39.60
2018-10-12T08:05:53.665Z,40.20
2018-10-12T08:08:22.642Z,40.90
2018-10-12T08:10:51.040Z,41.30
2018-10-12T08:13:19.273Z,41.50
2018-10-12T08:15:47.518Z,41.80
2018-10-12T08:18:15.721Z,41.70
2018-10-12T08:20:44.665Z,41.50
2018-10-12T08:23:12.867Z,41.70
2018-10-12T08:25:41.071Z,42.20
2018-10-12T08:28:09.257Z,42.70
2018-10-12T08:30:37.564Z,43.20
2018-10-12T08:33:07.434Z,43.50
2018-10-12T08:35:35.855Z,43.80
2018-10-12T08:38:04.025Z,44.00
2018-10-12T08:40:32.245Z,44.20
2018-10-12T08:43:00.600Z,44.20
2018-10-12T08:45:28.845Z,44.40
2018-10-12T08:47:57.024Z,44.30
2018-10-12T08:50:25.237Z,44.60
2018-10-12T08:52:53.515Z,44.80
2018-10-12T08:55:22.844Z,44.70
2018-10-12T08:57:51.350Z,44.90
2018-10-12T09:00:19.591Z,44.90
2018-10-12T09:02:47.918Z,45.40
2018-10-12T09:05:16.109Z,45.40
2018-10-12T09:07:44.620Z,45.80
2018-10-12T09:10:12.870Z,46.30
2018-10-12T09:12:41.086Z,46.90
2018-10-12T09:15:09.297Z,47.40
2018-10-12T09:17:37.773Z,48.10
2018-10-12T09:20:06.651Z,49.00
2018-10-12T09:22:34.837Z,49.70
2018-10-12T09:25:03.074Z,49.90
2018-10-12T09:27:31.286Z,50.20
2018-10-12T09:29:59.573Z,50.50
2018-10-12T09:32:27.789Z,50.90
2018-10-12T09:34:56.168Z,50.70
2018-10-12T09:37:25.641Z,50.90
2018-10-12T09:39:53.857Z,50.30
2018-10-12T09:42:22.634Z,49.40
2018-10-12T09:44:51.126Z,49.20
2018-10-12T09:47:19.332Z,49.50
2018-10-12T09:49:47.555Z,50.40
2018-10-12T09:52:15.740Z,50.70
2018-10-12T09:54:44.096Z,50.80
2018-10-12T09:57:17.805Z,51.20
2018-10-12T09:59:46.042Z,51.60
2018-10-12T10:02:20.050Z,52.40
2018-10-12T10:04:48.218Z,52.90
2018-10-12T10:07:16.492Z,53.50
2018-10-12T10:09:45.378Z,53.90
2018-10-12T10:12:13.639Z,54.40
2018-10-12T10:14:41.873Z,54.80
2018-10-12T10:17:10.087Z,55.50
2018-10-12T10:19:38.371Z,55.90
2018-10-12T10:22:06.763Z,56.20
2018-10-12T10:24:34.969Z,56.50
2018-10-12T10:27:03.158Z,56.30
2018-10-12T10:29:31.363Z,55.80
2018-10-12T10:32:00.454Z,55.40
2018-10-12T10:34:28.853Z,55.40
2018-10-12T10:36:57.088Z,55.80
2018-10-12T10:39:25.273Z,56.30
2018-10-12T10:41:53.581Z,57.00
2018-10-12T10:44:21.832Z,57.20
2018-10-12T10:46:50.063Z,57.30
2018-10-12T10:49:18.283Z,57.70
2018-10-12T10:51:46.489Z,57.60
2018-10-12T10:54:14.845Z,57.80
2018-10-12T10:56:43.170Z,58.10
2018-10-12T10:59:11.399Z,58.20
2018-10-12T11:01:40.140Z,57.90
2018-10-12T11:04:08.744Z,57.60
2018-10-12T11:06:37.333Z,57.60
2018-10-12T11:09:08.650Z,57.10
2018-10-12T11:11:36.956Z,56.90
2018-10-12T11:14:05.138Z,57.10
2018-10-12T11:16:33.365Z,57.10
2018-10-12T11:19:01.546Z,56.70
2018-10-12T11:21:30.437Z,56.40
2018-10-12T11:23:59.230Z,56.20
2018-10-12T11:26:27.474Z,56.40
2018-10-12T11:28:55.666Z,56.20
2018-10-12T11:31:23.861Z,55.90
2018-10-12T11:33:52.130Z,55.80
2018-10-12T11:36:21.112Z,55.60
2018-10-12T11:38:49.302Z,55.40
2018-10-12T11:41:17.526Z,55.50
2018-10-12T11:43:45.767Z,56.00
2018-10-12T11:46:14.720Z,56.30
2018-10-12T11:48:42.929Z,55.80
2018-10-12T11:51:11.144Z,55.50
2018-10-12T11:53:39.346Z,55.90
2018-10-12T11:56:07.697Z,56.40
2018-10-12T11:58:36.066Z,56.90
2018-10-12T12:01:04.400Z,56.90
2018-10-12T12:03:32.514Z,57.10
2018-10-12T12:06:00.867Z,57.30
2018-10-12T12:08:29.068Z,57.70
2018-10-12T12:10:57.262Z,56.30
2018-10-12T12:13:25.479Z,55.70
2018-10-12T12:15:53.641Z,55.30
2018-10-12T12:18:22.612Z,55.30
2018-10-12T12:20:50.847Z,55.50
2018-10-12T12:23:19.037Z,55.90
2018-10-12T12:25:47.216Z,56.20
2018-10-12T12:28:15.626Z,56.00
2018-10-12T12:30:44.054Z,55.80
2018-10-12T12:33:12.267Z,55.40
2018-10-12T12:35:40.842Z,54.70
2018-10-12T12:38:08.718Z,54.20
2018-10-12T12:40:37.570Z,53.80
2018-10-12T12:43:05.766Z,53.10
2018-10-12T12:45:33.999Z,51.70
2018-10-12T12:48:02.486Z,50.20
2018-10-12T12:50:31.265Z,48.30
2018-10-12T12:53:00.080Z,46.30
2018-10-12T12:55:30.545Z,44.20
2018-10-12T12:57:58.877Z,43.70
2018-10-12T13:00:27.244Z,43.50
2018-10-12T13:02:55.395Z,43.70
2018-10-12T13:05:23.613Z,43.50
2018-10-12T13:07:51.825Z,43.00
2018-10-12T13:10:20.057Z,42.30
2018-10-12T13:12:48.273Z,42.10
2018-10-12T13:15:16.498Z,41.70
2018-10-12T13:17:44.973Z,40.90
2018-10-12T13:20:13.169Z,39.70
2018-10-12T13:22:41.712Z,38.40
2018-10-12T13:25:09.927Z,37.30
2018-10-12T13:27:38.251Z,36.30
2018-10-12T13:30:06.542Z,35.60
2018-10-12T13:32:34.739Z,34.90
2018-10-12T13:35:02.957Z,34.40
2018-10-12T13:37:31.191Z,33.70
2018-10-12T13:39:59.818Z,33.20
2018-10-12T13:42:27.906Z,32.70
2018-10-12T13:44:56.200Z,32.20
2018-10-12T13:47:24.381Z,31.90
2018-10-12T13:49:52.752Z,31.40
2018-10-12T13:52:21.118Z,31.00
2018-10-12T13:54:49.314Z,30.70
2018-10-12T13:57:17.977Z,30.40
2018-10-12T13:59:47.493Z,30.50
2018-10-12T14:02:16.328Z,30.30
2018-10-12T14:04:44.618Z,30.30
2018-10-12T14:07:13.064Z,30.40
2018-10-12T14:09:41.231Z,30.40
2018-10-12T14:12:09.597Z,30.50
2018-10-12T14:14:38.922Z,30.40
2018-10-12T14:17:07.357Z,30.70
2018-10-12T14:19:35.761Z,31.20
2018-10-12T14:22:04.027Z,31.20
2018-10-12T14:24:32.365Z,31.20
2018-10-12T14:27:02.069Z,31.00
2018-10-12T14:29:30.418Z,30.80
2018-10-12T14:31:58.636Z,30.60
2018-10-12T14:34:26.893Z,30.50
2018-10-12T14:36:55.103Z,30.60
2018-10-12T14:39:23.401Z,30.50
2018-10-12T14:41:51.776Z,30.40
2018-10-12T14:44:20.163Z,30.30
2018-10-12T14:46:48.289Z,30.20
2018-10-12T14:49:16.612Z,30.20
2018-10-12T14:51:45.146Z,30.10
2018-10-12T14:54:13.975Z,30.40
2018-10-12T14:56:42.300Z,30.50
2018-10-12T14:59:10.605Z,30.40
2018-10-12T15:01:38.869Z,30.30
2018-10-12T15:04:07.182Z,30.40
2018-10-12T15:06:35.423Z,30.50
2018-10-12T15:09:04.869Z,30.70
2018-10-12T15:11:33.355Z,30.80
2018-10-12T15:14:01.610Z,30.80
2018-10-12T15:16:29.980Z,30.80
2018-10-12T15:18:58.188Z,31.20
2018-10-12T15:21:26.646Z,31.70
2018-10-12T15:23:54.622Z,31.70
2018-10-12T15:26:22.933Z,31.50
2018-10-12T15:28:51.165Z,31.10
2018-10-12T15:31:19.457Z,30.50
2018-10-12T15:33:48.054Z,30.30
2018-10-12T15:36:16.357Z,30.00
2018-10-12T15:38:45.438Z,29.90
2018-10-12T15:41:14.114Z,29.90
2018-10-12T15:43:42.309Z,30.00
2018-10-12T15:46:10.541Z,30.20
2018-10-12T15:48:38.877Z,30.40
2018-10-12T15:51:07.533Z,30.80
2018-10-12T15:53:35.773Z,31.20
2018-10-12T15:56:04.037Z,31.80
2018-10-12T15:58:32.307Z,32.30
2018-10-12T16:01:00.600Z,32.70
2018-10-12T16:03:29.027Z,32.90
2018-10-12T16:05:57.306Z,32.90
2018-10-12T16:08:25.505Z,32.70
2018-10-12T16:10:53.860Z,32.30
2018-10-12T16:13:22.393Z,31.80
2018-10-12T16:15:50.825Z,31.20
2018-10-12T16:18:19.079Z,30.70
2018-10-12T16:20:47.308Z,30.20
2018-10-12T16:23:15.598Z,29.70
2018-10-12T16:25:57.433Z,29.30
2018-10-12T16:28:25.649Z,29.00
2018-10-12T16:30:54.894Z,28.60
2018-10-12T16:33:23.443Z,28.30
2018-10-12T16:35:53.020Z,28.00
2018-10-12T16:38:21.226Z,27.70
2018-10-12T16:40:49.403Z,27.40
2018-10-12T16:43:17.758Z,27.20
2018-10-12T16:45:47.590Z,26.80
2018-10-12T16:48:15.910Z,26.70
2018-10-12T16:50:44.201Z,26.70
2018-10-12T16:53:12.867Z,26.50
2018-10-12T16:55:41.162Z,26.40
2018-10-12T16:58:10.670Z,26.40
2018-10-12T17:00:38.884Z,26.30
2018-10-12T17:03:07.156Z,26.10
2018-10-12T17:05:35.390Z,25.90
2018-10-12T17:08:03.576Z,25.80
2018-10-12T17:10:32.545Z,25.80
2018-10-12T17:13:01.958Z,25.80
2018-10-12T17:15:30.390Z,25.80
2018-10-12T17:17:59.416Z,25.60
2018-10-12T17:20:27.749Z,25.50
2018-10-12T17:22:55.966Z,25.40
2018-10-12T17:25:24.194Z,25.30
2018-10-12T17:27:53.360Z,25.30
2018-10-12T17:30:21.687Z,25.10
2018-10-12T17:32:49.775Z,25.00
2018-10-12T17:35:18.074Z,25.00
2018-10-12T17:37:46.262Z,24.90
2018-10-12T17:40:14.533Z,24.80
2018-10-12T17:42:42.823Z,24.70
2018-10-12T17:45:11.474Z,24.80
2018-10-12T17:47:39.749Z,24.70
2018-10-12T17:50:08.540Z,24.60
2018-10-12T17:52:36.777Z,24.60
2018-10-12T17:55:05.042Z,24.60
2018-10-12T17:57:33.353Z,24.50
2018-10-12T18:00:01.626Z,24.50
2018-10-12T18:02:29.953Z,24.50
2018-10-12T18:04:58.181Z,24.40
2018-10-12T18:07:26.559Z,24.20
2018-10-12T18:09:54.766Z,24.10
2018-10-12T18:12:23.854Z,24.10
2018-10-12T18:14:52.206Z,24.00
2018-10-12T18:17:20.383Z,23.90
2018-10-12T18:19:48.654Z,24.00
2018-10-12T18:22:16.875Z,24.00
2018-10-12T18:24:45.310Z,23.90
2018-10-12T18:27:13.807Z,23.90
2018-10-12T18:29:42.085Z,23.80
2018-10-12T18:32:10.293Z,23.80
2018-10-12T18:34:38.577Z,23.80
2018-10-12T18:37:06.907Z,23.80
2018-10-12T18:39:35.111Z,23.70
2018-10-12T18:42:03.285Z,23.70
2018-10-12T18:44:31.477Z,23.70
2018-10-12T18:46:59.916Z,23.70
2018-10-12T18:49:28.333Z,23.70
2018-10-12T18:51:56.642Z,23.60
2018-10-12T18:54:24.928Z,23.60
2018-10-12T18:56:53.194Z,23.60
2018-10-12T18:59:21.619Z,23.50
2018-10-12T19:01:49.777Z,23.50
2018-10-12T19:04:18.064Z,23.40
2018-10-12T19:06:46.306Z,23.40
2018-10-12T19:09:14.580Z,23.40
2018-10-12T19:11:42.762Z,23.30
2018-10-12T19:14:11.114Z,23.20
2018-10-12T19:16:39.315Z,23.20
2018-10-12T19:19:07.928Z,23.20
2018-10-12T19:21:36.341Z,23.20
2018-10-12T19:24:05.155Z,23.20
2018-10-12T19:26:33.341Z,23.20
2018-10-12T19:29:01.651Z,23.20
2018-10-12T19:31:30.769Z,23.10
2018-10-12T19:33:59.061Z,23.00
2018-10-12T19:36:27.250Z,23.00
2018-10-12T19:38:55.545Z,22.90
2018-10-12T19:41:23.737Z,22.90
2018-10-12T19:43:52.062Z,22.90
2018-10-12T19:46:20.460Z,22.90
2018-10-12T19:48:49.161Z,22.90
2018-10-12T19:51:17.488Z,22.80
2018-10-12T19:53:45.989Z,22.80
2018-10-12T19:56:14.457Z,22.70
2018-10-12T19:58:42.689Z,22.70
2018-10-12T20:01:10.920Z,22.70
2018-10-12T20:03:39.109Z,22.60
2018-10-12T20:06:07.523Z,22.60
2018-10-12T20:08:36.042Z,22.60
2018-10-12T20:11:04.234Z,22.60
2018-10-12T20:13:32.413Z,22.50
2018-10-12T20:16:01.211Z,22.40
2018-10-12T20:18:30.216Z,22.40
2018-10-12T20:20:58.570Z,22.40
2018-10-12T20:23:26.787Z,22.30
2018-10-12T20:25:55.029Z,22.30
2018-10-12T20:28:23.411Z,22.20
2018-10-12T20:30:51.917Z,22.20
2018-10-12T20:33:20.181Z,22.10
2018-10-12T20:35:50.302Z,22.00
2018-10-12T20:38:18.485Z,22.00
2018-10-12T20:40:46.702Z,21.90
2018-10-12T20:43:15.409Z,21.80
2018-10-12T20:45:44.569Z,21.80
2018-10-12T20:48:12.957Z,21.90
2018-10-12T20:50:41.305Z,21.80
2018-10-12T20:53:09.558Z,21.80
2018-10-12T20:55:37.978Z,21.80
2018-10-12T20:58:10.818Z,21.70
2018-10-12T21:00:39.196Z,21.70
2018-10-12T21:03:07.821Z,21.60
2018-10-12T21:05:36.029Z,21.60
2018-10-12T21:08:04.262Z,21.60
2018-10-12T21:10:32.461Z,21.50
2018-10-12T21:13:00.743Z,21.50
2018-10-12T21:15:29.173Z,21.50
2018-10-12T21:17:57.395Z,21.40
2018-10-12T21:20:25.541Z,21.30
2018-10-12T21:22:53.747Z,21.30
2018-10-12T21:25:23.277Z,21.20
2018-10-12T21:27:51.594Z,21.10
2018-10-12T21:30:19.780Z,21.20
2018-10-12T21:32:48.035Z,21.10
2018-10-12T21:35:16.266Z,21.10
2018-10-12T21:37:44.529Z,21.10
2018-10-12T21:40:12.725Z,21.10
2018-10-12T21:42:40.919Z,21.10
2018-10-12T21:45:09.238Z,21.00
2018-10-12T21:47:38.111Z,21.00
2018-10-12T21:50:06.445Z,20.90
2018-10-12T21:52:34.887Z,20.80
2018-10-12T21:55:03.393Z,20.70
2018-10-12T21:57:31.603Z,20.60
2018-10-12T21:59:59.977Z,20.60
2018-10-12T22:02:28.219Z,20.50
2018-10-12T22:04:56.416Z,20.50
2018-10-12T22:07:24.615Z,20.50
2018-10-12T22:09:53.049Z,20.50
2018-10-12T22:12:21.458Z,20.50
2018-10-12T22:14:49.659Z,20.50
2018-10-12T22:17:17.850Z,20.40
2018-10-12T22:19:46.254Z,20.40
2018-10-12T22:22:15.499Z,20.30
2018-10-12T22:24:43.906Z,20.20
2018-10-12T22:27:12.098Z,20.10
2018-10-12T22:29:40.329Z,20.00
2018-10-12T22:32:08.722Z,19.80
2018-10-12T22:34:37.341Z,19.70
2018-10-12T22:37:06.126Z,19.70
2018-10-12T22:39:34.466Z,19.60
2018-10-12T22:42:02.741Z,19.60
2018-10-12T22:44:31.157Z,19.50
2018-10-12T22:47:00.349Z,19.50
2018-10-12T22:49:28.634Z,19.50
2018-10-12T22:51:56.837Z,19.40
2018-10-12T22:54:25.062Z,19.40
2018-10-12T22:56:53.394Z,19.40
2018-10-12T22:59:22.189Z,19.40
2018-10-12T23:01:50.393Z,19.40
2018-10-12T23:04:18.818Z,19.40
2018-10-12T23:06:46.980Z,19.40
2018-10-12T23:09:15.497Z,19.40
2018-10-12T23:11:44.080Z,19.50
2018-10-12T23:14:12.258Z,19.50
2018-10-12T23:16:40.874Z,19.50
2018-10-12T23:19:10.597Z,19.50
2018-10-12T23:21:39.265Z,19.50
2018-10-12T23:24:07.551Z,19.50
2018-10-12T23:26:35.777Z,19.50
2018-10-12T23:29:04.067Z,19.50
2018-10-12T23:31:32.318Z,19.50
2018-10-12T23:34:07.501Z,19.50
2018-10-12T23:36:35.697Z,19.50
2018-10-12T23:39:05.225Z,19.40
2018-10-12T23:41:33.514Z,19.40
2018-10-12T23:44:01.793Z,19.40
2018-10-12T23:46:30.277Z,19.30
2018-10-12T23:48:58.472Z,19.30
2018-10-12T23:51:26.705Z,19.30
2018-10-12T23:53:54.998Z,19.20
2018-10-12T23:56:23.427Z,19.10
2018-10-12T23:58:51.660Z,19.10
